sensor_id;sensor_type;location;lat;lon;timestamp;pressure;altitude;pressure_sealevel;temperature;humidity
48156;BME280;35568;48.104;11.782;2022-12-22T00:02:15;95099.87;;;5.98;55.87
48156;BME280;35568;48.104;11.782;2022-12-22T00:04:44;95098.89;;;6.04;56.06
48156;BME280;35568;48.104;11.782;2022-12-22T00:07:12;95098.08;;;5.87;56.02
48156;BME280;35568;48.104;11.782;2022-12-22T00:09:39;95093.20;;;5.97;55.97
48156;BME280;35568;48.104;11.782;2022-12-22T00:12:07;95091.39;;;5.99;55.93
48156;BME280;35568;48.104;11.782;2022-12-22T00:14:34;95083.18;;;6.09;55.48
48156;BME280;35568;48.104;11.782;2022-12-22T00:17:01;95073.91;;;6.11;55.40
48156;BME280;35568;48.104;11.782;2022-12-22T00:19:29;95072.19;;;5.84;55.49
48156;BME280;35568;48.104;11.782;2022-12-22T00:21:57;95067.45;;;6.19;55.57
48156;BME280;35568;48.104;11.782;2022-12-22T00:24:27;95065.40;;;6.24;55.13
48156;BME280;35568;48.104;11.782;2022-12-22T00:26:53;95060.13;;;6.07;55.16
48156;BME280;35568;48.104;11.782;2022-12-22T00:29:20;95055.79;;;6.29;55.11
48156;BME280;35568;48.104;11.782;2022-12-22T00:31:47;95060.51;;;5.98;55.21
48156;BME280;35568;48.104;11.782;2022-12-22T00:34:17;95057.91;;;6.36;54.92
48156;BME280;35568;48.104;11.782;2022-12-22T00:36:44;95053.74;;;6.43;54.93
48156;BME280;35568;48.104;11.782;2022-12-22T00:39:12;95054.65;;;5.92;55.12
48156;BME280;35568;48.104;11.782;2022-12-22T00:41:39;95046.77;;;6.05;55.10
48156;BME280;35568;48.104;11.782;2022-12-22T00:44:06;95048.53;;;6.21;54.81
48156;BME280;35568;48.104;11.782;2022-12-22T00:46:36;95054.90;;;6.29;54.47
48156;BME280;35568;48.104;11.782;2022-12-22T00:49:05;95055.74;;;6.23;54.64
48156;BME280;35568;48.104;11.782;2022-12-22T00:51:32;95052.29;;;6.22;54.62
48156;BME280;35568;48.104;11.782;2022-12-22T00:53:59;95049.52;;;6.38;54.69
48156;BME280;35568;48.104;11.782;2022-12-22T00:56:27;95050.96;;;6.51;54.21
48156;BME280;35568;48.104;11.782;2022-12-22T00:58:56;95050.86;;;6.57;54.22
48156;BME280;35568;48.104;11.782;2022-12-22T01:01:23;95049.65;;;6.61;54.00
48156;BME280;35568;48.104;11.782;2022-12-22T01:03:50;95051.38;;;6.43;53.81
48156;BME280;35568;48.104;11.782;2022-12-22T01:06:17;95050.93;;;6.33;53.93
48156;BME280;35568;48.104;11.782;2022-12-22T01:08:45;95049.34;;;6.54;53.98
48156;BME280;35568;48.104;11.782;2022-12-22T01:11:13;95044.69;;;6.69;54.08
48156;BME280;35568;48.104;11.782;2022-12-22T01:13:40;95041.92;;;6.23;54.01
48156;BME280;35568;48.104;11.782;2022-12-22T01:16:09;95046.33;;;6.53;54.17
48156;BME280;35568;48.104;11.782;2022-12-22T01:18:36;95049.07;;;6.13;54.07
48156;BME280;35568;48.104;11.782;2022-12-22T01:21:03;95043.58;;;6.56;53.93
48156;BME280;35568;48.104;11.782;2022-12-22T01:23:31;95042.52;;;6.55;54.16
48156;BME280;35568;48.104;11.782;2022-12-22T01:25:58;95041.00;;;6.30;54.35
48156;BME280;35568;48.104;11.782;2022-12-22T01:28:25;95042.88;;;6.53;54.48
48156;BME280;35568;48.104;11.782;2022-12-22T01:30:52;95043.59;;;6.17;54.42
48156;BME280;35568;48.104;11.782;2022-12-22T01:33:19;95043.97;;;6.38;54.52
48156;BME280;35568;48.104;11.782;2022-12-22T01:35:46;95043.39;;;6.40;54.35
48156;BME280;35568;48.104;11.782;2022-12-22T01:38:13;95045.73;;;6.40;54.27
48156;BME280;35568;48.104;11.782;2022-12-22T01:40:40;95043.92;;;6.41;54.21
48156;BME280;35568;48.104;11.782;2022-12-22T01:43:18;95042.48;;;6.31;54.41
48156;BME280;35568;48.104;11.782;2022-12-22T01:45:44;95037.42;;;6.36;54.19
48156;BME280;35568;48.104;11.782;2022-12-22T01:48:12;95037.08;;;6.25;54.07
48156;BME280;35568;48.104;11.782;2022-12-22T01:50:40;95032.02;;;6.15;54.22
48156;BME280;35568;48.104;11.782;2022-12-22T01:53:11;95028.77;;;5.93;54.53
48156;BME280;35568;48.104;11.782;2022-12-22T01:55:40;95027.18;;;5.77;54.48
48156;BME280;35568;48.104;11.782;2022-12-22T01:58:15;95025.15;;;6.24;54.30
48156;BME280;35568;48.104;11.782;2022-12-22T02:00:46;95025.08;;;6.08;54.07
48156;BME280;35568;48.104;11.782;2022-12-22T02:03:14;95026.14;;;5.97;54.39
48156;BME280;35568;48.104;11.782;2022-12-22T02:06:01;95019.39;;;6.19;54.38
48156;BME280;35568;48.104;11.782;2022-12-22T02:08:32;95013.03;;;5.87;54.49
48156;BME280;35568;48.104;11.782;2022-12-22T02:11:16;95007.51;;;5.94;54.53
48156;BME280;35568;48.104;11.782;2022-12-22T02:14:02;95002.96;;;5.87;54.28
48156;BME280;35568;48.104;11.782;2022-12-22T02:16:35;95011.07;;;5.68;54.40
48156;BME280;35568;48.104;11.782;2022-12-22T02:19:11;95000.16;;;5.60;54.69
48156;BME280;35568;48.104;11.782;2022-12-22T02:21:49;95000.93;;;5.81;54.75
48156;BME280;35568;48.104;11.782;2022-12-22T02:24:27;95006.66;;;5.81;54.85
48156;BME280;35568;48.104;11.782;2022-12-22T02:26:59;95010.28;;;5.92;54.53
48156;BME280;35568;48.104;11.782;2022-12-22T02:29:31;95007.82;;;5.71;54.53
48156;BME280;35568;48.104;11.782;2022-12-22T02:31:59;95008.43;;;6.02;54.33
48156;BME280;35568;48.104;11.782;2022-12-22T02:34:25;95004.55;;;5.73;54.58
48156;BME280;35568;48.104;11.782;2022-12-22T02:36:56;95004.16;;;5.69;54.65
48156;BME280;35568;48.104;11.782;2022-12-22T02:39:32;95005.42;;;5.82;54.52
48156;BME280;35568;48.104;11.782;2022-12-22T02:42:12;95002.21;;;5.76;54.71
48156;BME280;35568;48.104;11.782;2022-12-22T02:44:50;95011.58;;;5.84;54.25
48156;BME280;35568;48.104;11.782;2022-12-22T02:47:28;95007.01;;;5.93;54.27
48156;BME280;35568;48.104;11.782;2022-12-22T02:50:03;95009.32;;;5.71;54.45
48156;BME280;35568;48.104;11.782;2022-12-22T02:52:36;95009.08;;;5.72;54.33
48156;BME280;35568;48.104;11.782;2022-12-22T02:55:05;95009.13;;;6.00;54.20
48156;BME280;35568;48.104;11.782;2022-12-22T02:57:33;95006.91;;;6.23;53.86
48156;BME280;35568;48.104;11.782;2022-12-22T03:00:00;94998.09;;;5.92;54.29
48156;BME280;35568;48.104;11.782;2022-12-22T03:02:27;94994.17;;;5.95;54.10
48156;BME280;35568;48.104;11.782;2022-12-22T03:04:54;94999.61;;;5.81;54.10
48156;BME280;35568;48.104;11.782;2022-12-22T03:07:20;95000.48;;;6.02;53.82
48156;BME280;35568;48.104;11.782;2022-12-22T03:09:47;94997.68;;;6.02;53.90
48156;BME280;35568;48.104;11.782;2022-12-22T03:12:14;94992.79;;;6.03;54.04
48156;BME280;35568;48.104;11.782;2022-12-22T03:14:41;94988.94;;;6.22;54.10
48156;BME280;35568;48.104;11.782;2022-12-22T03:17:08;94984.86;;;6.00;54.16
48156;BME280;35568;48.104;11.782;2022-12-22T03:19:35;94986.12;;;6.06;54.34
48156;BME280;35568;48.104;11.782;2022-12-22T03:22:02;94986.36;;;6.08;54.24
48156;BME280;35568;48.104;11.782;2022-12-22T03:24:28;94988.23;;;6.18;54.21
48156;BME280;35568;48.104;11.782;2022-12-22T03:26:55;94984.40;;;6.43;53.78
48156;BME280;35568;48.104;11.782;2022-12-22T03:29:22;94986.50;;;6.60;53.52
48156;BME280;35568;48.104;11.782;2022-12-22T03:48:33;94978.96;;;7.02;54.63
48156;BME280;35568;48.104;11.782;2022-12-22T03:50:59;94978.46;;;5.47;53.88
48156;BME280;35568;48.104;11.782;2022-12-22T03:53:25;94976.57;;;6.31;51.72
48156;BME280;35568;48.104;11.782;2022-12-22T03:55:52;94980.41;;;7.57;51.54
48156;BME280;35568;48.104;11.782;2022-12-22T03:58:19;94976.21;;;7.15;52.18
48156;BME280;35568;48.104;11.782;2022-12-22T04:03:01;94976.70;;;7.21;52.11
48156;BME280;35568;48.104;11.782;2022-12-22T04:05:28;94979.24;;;7.65;52.20
48156;BME280;35568;48.104;11.782;2022-12-22T04:07:54;94978.97;;;7.30;53.02
48156;BME280;35568;48.104;11.782;2022-12-22T04:10:21;94976.64;;;7.05;53.65
48156;BME280;35568;48.104;11.782;2022-12-22T04:12:50;94980.19;;;6.96;53.98
48156;BME280;35568;48.104;11.782;2022-12-22T04:15:17;94982.28;;;6.83;54.34
48156;BME280;35568;48.104;11.782;2022-12-22T04:17:44;94982.69;;;7.00;54.53
48156;BME280;35568;48.104;11.782;2022-12-22T04:20:11;94980.71;;;6.53;54.71
48156;BME280;35568;48.104;11.782;2022-12-22T04:22:38;94979.63;;;6.79;55.02
48156;BME280;35568;48.104;11.782;2022-12-22T04:25:06;94976.36;;;7.17;55.11
48156;BME280;35568;48.104;11.782;2022-12-22T04:27:33;94976.47;;;6.53;55.37
48156;BME280;35568;48.104;11.782;2022-12-22T04:30:00;94973.34;;;6.64;55.78
48156;BME280;35568;48.104;11.782;2022-12-22T04:32:27;94969.97;;;6.62;55.90
48156;BME280;35568;48.104;11.782;2022-12-22T04:34:54;94968.47;;;6.48;55.81
48156;BME280;35568;48.104;11.782;2022-12-22T04:37:21;94960.92;;;6.64;56.07
48156;BME280;35568;48.104;11.782;2022-12-22T04:39:48;94956.12;;;6.87;56.42
48156;BME280;35568;48.104;11.782;2022-12-22T04:42:14;94952.49;;;6.69;56.57
48156;BME280;35568;48.104;11.782;2022-12-22T04:44:41;94954.29;;;6.46;56.63
48156;BME280;35568;48.104;11.782;2022-12-22T04:47:08;94959.40;;;6.37;56.75
48156;BME280;35568;48.104;11.782;2022-12-22T04:49:35;94957.02;;;6.69;56.85
48156;BME280;35568;48.104;11.782;2022-12-22T04:52:02;94953.91;;;6.92;56.76
48156;BME280;35568;48.104;11.782;2022-12-22T04:54:29;94952.68;;;6.59;57.16
48156;BME280;35568;48.104;11.782;2022-12-22T04:56:55;94945.40;;;6.53;57.00
48156;BME280;35568;48.104;11.782;2022-12-22T04:59:22;94950.39;;;6.61;56.80
48156;BME280;35568;48.104;11.782;2022-12-22T05:01:49;94950.03;;;6.61;56.70
48156;BME280;35568;48.104;11.782;2022-12-22T05:04:16;94943.63;;;6.97;56.91
48156;BME280;35568;48.104;11.782;2022-12-22T05:06:43;94940.75;;;6.92;56.90
48156;BME280;35568;48.104;11.782;2022-12-22T05:09:10;94943.96;;;6.67;57.02
48156;BME280;35568;48.104;11.782;2022-12-22T05:11:37;94939.58;;;6.97;56.60
48156;BME280;35568;48.104;11.782;2022-12-22T05:14:05;94940.78;;;6.71;56.71
48156;BME280;35568;48.104;11.782;2022-12-22T05:16:32;94938.76;;;6.86;56.42
48156;BME280;35568;48.104;11.782;2022-12-22T05:18:59;94931.22;;;7.28;56.33
48156;BME280;35568;48.104;11.782;2022-12-22T05:21:25;94931.07;;;7.06;56.00
48156;BME280;35568;48.104;11.782;2022-12-22T05:23:52;94935.34;;;7.29;55.91
48156;BME280;35568;48.104;11.782;2022-12-22T05:26:19;94936.91;;;7.31;55.85
48156;BME280;35568;48.104;11.782;2022-12-22T05:28:46;94932.26;;;7.39;55.76
48156;BME280;35568;48.104;11.782;2022-12-22T05:31:16;94936.59;;;7.42;55.54
48156;BME280;35568;48.104;11.782;2022-12-22T05:33:43;94938.35;;;7.27;55.75
48156;BME280;35568;48.104;11.782;2022-12-22T05:36:10;94944.10;;;7.17;55.86
48156;BME280;35568;48.104;11.782;2022-12-22T05:38:36;94940.02;;;7.32;55.94
48156;BME280;35568;48.104;11.782;2022-12-22T05:41:03;94933.45;;;7.30;55.61
48156;BME280;35568;48.104;11.782;2022-12-22T05:43:30;94938.91;;;7.25;55.65
48156;BME280;35568;48.104;11.782;2022-12-22T05:46:00;94926.39;;;6.98;55.60
48156;BME280;35568;48.104;11.782;2022-12-22T05:48:28;94920.68;;;7.21;55.38
48156;BME280;35568;48.104;11.782;2022-12-22T05:50:55;94922.12;;;6.90;55.29
48156;BME280;35568;48.104;11.782;2022-12-22T05:53:22;94915.85;;;6.82;55.41
48156;BME280;35568;48.104;11.782;2022-12-22T05:55:48;94916.66;;;6.78;55.36
48156;BME280;35568;48.104;11.782;2022-12-22T05:58:15;94927.57;;;6.96;54.92
48156;BME280;35568;48.104;11.782;2022-12-22T06:00:42;94929.87;;;6.89;54.98
48156;BME280;35568;48.104;11.782;2022-12-22T06:03:09;94928.57;;;7.07;55.36
48156;BME280;35568;48.104;11.782;2022-12-22T06:05:36;94926.52;;;7.08;55.18
48156;BME280;35568;48.104;11.782;2022-12-22T06:08:03;94921.16;;;6.65;55.41
48156;BME280;35568;48.104;11.782;2022-12-22T06:10:30;94926.35;;;7.00;55.35
48156;BME280;35568;48.104;11.782;2022-12-22T06:12:57;94922.17;;;6.81;54.91
48156;BME280;35568;48.104;11.782;2022-12-22T06:15:24;94924.33;;;6.86;54.88
48156;BME280;35568;48.104;11.782;2022-12-22T06:17:51;94924.75;;;6.75;54.78
48156;BME280;35568;48.104;11.782;2022-12-22T06:20:18;94921.63;;;6.62;54.77
48156;BME280;35568;48.104;11.782;2022-12-22T06:22:45;94918.33;;;6.75;54.68
48156;BME280;35568;48.104;11.782;2022-12-22T06:25:12;94911.55;;;6.70;54.65
48156;BME280;35568;48.104;11.782;2022-12-22T06:27:39;94907.50;;;5.81;54.72
48156;BME280;35568;48.104;11.782;2022-12-22T06:30:08;94902.57;;;6.95;54.18
48156;BME280;35568;48.104;11.782;2022-12-22T06:32:35;94905.83;;;6.77;54.28
48156;BME280;35568;48.104;11.782;2022-12-22T06:35:02;94904.19;;;6.62;54.71
48156;BME280;35568;48.104;11.782;2022-12-22T06:37:29;94902.37;;;6.41;54.98
48156;BME280;35568;48.104;11.782;2022-12-22T06:39:56;94900.94;;;6.69;54.91
48156;BME280;35568;48.104;11.782;2022-12-22T06:42:22;94901.18;;;6.44;54.99
48156;BME280;35568;48.104;11.782;2022-12-22T06:44:49;94906.20;;;6.52;55.18
48156;BME280;35568;48.104;11.782;2022-12-22T06:47:16;94904.94;;;6.72;55.00
48156;BME280;35568;48.104;11.782;2022-12-22T06:49:43;94909.99;;;6.41;54.83
48156;BME280;35568;48.104;11.782;2022-12-22T06:52:10;94910.00;;;6.65;54.88
48156;BME280;35568;48.104;11.782;2022-12-22T06:54:37;94925.74;;;6.42;54.65
48156;BME280;35568;48.104;11.782;2022-12-22T06:57:04;94926.23;;;6.68;54.43
48156;BME280;35568;48.104;11.782;2022-12-22T06:59:30;94928.22;;;6.42;54.57
48156;BME280;35568;48.104;11.782;2022-12-22T07:01:57;94925.64;;;6.35;54.41
48156;BME280;35568;48.104;11.782;2022-12-22T07:04:24;94935.35;;;6.64;54.27
48156;BME280;35568;48.104;11.782;2022-12-22T07:06:51;94936.04;;;6.93;54.04
48156;BME280;35568;48.104;11.782;2022-12-22T07:09:17;94939.46;;;6.36;53.79
48156;BME280;35568;48.104;11.782;2022-12-22T07:11:44;94945.49;;;6.84;53.80
48156;BME280;35568;48.104;11.782;2022-12-22T07:14:11;94944.32;;;6.79;53.53
48156;BME280;35568;48.104;11.782;2022-12-22T07:16:38;94931.85;;;6.96;53.33
48156;BME280;35568;48.104;11.782;2022-12-22T07:19:05;94929.79;;;6.79;53.19
48156;BME280;35568;48.104;11.782;2022-12-22T07:21:32;94922.48;;;6.77;52.82
48156;BME280;35568;48.104;11.782;2022-12-22T07:23:58;94915.23;;;6.79;52.81
48156;BME280;35568;48.104;11.782;2022-12-22T07:26:25;94905.82;;;6.93;52.53
48156;BME280;35568;48.104;11.782;2022-12-22T07:28:52;94911.22;;;6.80;52.86
48156;BME280;35568;48.104;11.782;2022-12-22T07:31:19;94911.93;;;6.90;52.87
48156;BME280;35568;48.104;11.782;2022-12-22T07:33:46;94920.29;;;7.03;52.64
48156;BME280;35568;48.104;11.782;2022-12-22T07:36:14;94933.47;;;7.02;52.81
48156;BME280;35568;48.104;11.782;2022-12-22T07:38:43;94927.63;;;7.13;52.85
48156;BME280;35568;48.104;11.782;2022-12-22T07:41:12;94930.59;;;7.51;52.26
48156;BME280;35568;48.104;11.782;2022-12-22T07:43:40;94937.12;;;7.69;51.79
48156;BME280;35568;48.104;11.782;2022-12-22T07:46:07;94935.67;;;7.63;51.68
48156;BME280;35568;48.104;11.782;2022-12-22T07:48:34;94933.73;;;7.71;51.81
48156;BME280;35568;48.104;11.782;2022-12-22T07:51:03;94924.60;;;8.08;52.04
48156;BME280;35568;48.104;11.782;2022-12-22T07:53:31;94923.35;;;8.49;51.02
48156;BME280;35568;48.104;11.782;2022-12-22T07:56:02;94920.59;;;8.53;50.51
48156;BME280;35568;48.104;11.782;2022-12-22T07:58:29;94907.66;;;8.60;50.40
48156;BME280;35568;48.104;11.782;2022-12-22T08:00:57;94907.69;;;8.49;50.64
48156;BME280;35568;48.104;11.782;2022-12-22T08:03:24;94912.80;;;7.92;51.31
48156;BME280;35568;48.104;11.782;2022-12-22T08:05:52;94910.35;;;7.80;51.86
48156;BME280;35568;48.104;11.782;2022-12-22T08:08:18;94913.69;;;7.48;51.74
48156;BME280;35568;48.104;11.782;2022-12-22T08:10:45;94917.92;;;7.53;51.71
48156;BME280;35568;48.104;11.782;2022-12-22T08:13:12;94919.99;;;7.35;51.87
48156;BME280;35568;48.104;11.782;2022-12-22T08:15:39;94918.93;;;7.34;51.62
48156;BME280;35568;48.104;11.782;2022-12-22T08:18:06;94917.94;;;7.54;51.28
48156;BME280;35568;48.104;11.782;2022-12-22T08:20:33;94921.46;;;7.67;51.15
48156;BME280;35568;48.104;11.782;2022-12-22T08:22:59;94921.75;;;7.66;51.14
48156;BME280;35568;48.104;11.782;2022-12-22T08:25:26;94923.59;;;7.38;50.89
48156;BME280;35568;48.104;11.782;2022-12-22T08:27:54;94924.32;;;7.52;50.49
48156;BME280;35568;48.104;11.782;2022-12-22T08:30:22;94914.40;;;7.86;49.94
48156;BME280;35568;48.104;11.782;2022-12-22T08:32:49;94915.20;;;8.32;49.29
48156;BME280;35568;48.104;11.782;2022-12-22T08:35:16;94923.22;;;8.22;48.57
48156;BME280;35568;48.104;11.782;2022-12-22T08:37:45;94918.94;;;8.10;48.89
48156;BME280;35568;48.104;11.782;2022-12-22T08:40:17;94925.59;;;8.25;48.37
48156;BME280;35568;48.104;11.782;2022-12-22T08:42:45;94927.04;;;8.10;48.49
48156;BME280;35568;48.104;11.782;2022-12-22T08:45:13;94920.48;;;8.37;48.12
48156;BME280;35568;48.104;11.782;2022-12-22T08:47:39;94921.74;;;8.56;47.96
48156;BME280;35568;48.104;11.782;2022-12-22T08:50:07;94932.11;;;8.38;48.05
48156;BME280;35568;48.104;11.782;2022-12-22T08:52:34;94927.98;;;8.52;47.98
48156;BME280;35568;48.104;11.782;2022-12-22T08:55:02;94933.31;;;8.49;47.82
48156;BME280;35568;48.104;11.782;2022-12-22T08:57:29;94928.03;;;8.37;47.70
48156;BME280;35568;48.104;11.782;2022-12-22T08:59:56;94931.88;;;8.29;47.39
48156;BME280;35568;48.104;11.782;2022-12-22T09:02:23;94932.73;;;8.62;46.81
48156;BME280;35568;48.104;11.782;2022-12-22T09:04:50;94910.25;;;9.11;46.68
48156;BME280;35568;48.104;11.782;2022-12-22T09:07:18;94914.84;;;9.17;46.41
48156;BME280;35568;48.104;11.782;2022-12-22T09:09:45;94913.84;;;8.92;45.67
48156;BME280;35568;48.104;11.782;2022-12-22T09:12:12;94913.93;;;9.33;44.86
48156;BME280;35568;48.104;11.782;2022-12-22T09:14:39;94910.03;;;9.36;44.46
48156;BME280;35568;48.104;11.782;2022-12-22T09:17:05;94903.87;;;9.24;44.46
48156;BME280;35568;48.104;11.782;2022-12-22T09:19:32;94897.91;;;9.63;44.52
48156;BME280;35568;48.104;11.782;2022-12-22T09:21:59;94902.17;;;9.70;44.58
48156;BME280;35568;48.104;11.782;2022-12-22T09:24:26;94902.68;;;9.86;44.42
48156;BME280;35568;48.104;11.782;2022-12-22T09:26:53;94905.75;;;9.89;43.66
48156;BME280;35568;48.104;11.782;2022-12-22T09:29:19;94907.33;;;9.82;43.81
48156;BME280;35568;48.104;11.782;2022-12-22T09:31:46;94911.85;;;9.97;44.34
48156;BME280;35568;48.104;11.782;2022-12-22T09:34:13;94907.15;;;9.97;43.53
48156;BME280;35568;48.104;11.782;2022-12-22T09:36:40;94901.23;;;9.76;44.18
48156;BME280;35568;48.104;11.782;2022-12-22T09:39:08;94899.73;;;10.01;44.25
48156;BME280;35568;48.104;11.782;2022-12-22T09:41:38;94912.40;;;9.99;43.80
48156;BME280;35568;48.104;11.782;2022-12-22T09:44:13;94913.27;;;9.60;44.62
48156;BME280;35568;48.104;11.782;2022-12-22T09:46:40;94918.48;;;9.73;44.52
48156;BME280;35568;48.104;11.782;2022-12-22T09:49:11;94913.81;;;10.03;44.62
48156;BME280;35568;48.104;11.782;2022-12-22T09:51:42;94923.62;;;9.84;44.47
48156;BME280;35568;48.104;11.782;2022-12-22T09:54:11;94926.97;;;9.92;44.67
48156;BME280;35568;48.104;11.782;2022-12-22T09:56:39;94936.34;;;9.77;45.31
48156;BME280;35568;48.104;11.782;2022-12-22T09:59:09;94937.69;;;9.90;45.32
48156;BME280;35568;48.104;11.782;2022-12-22T10:01:49;94915.25;;;10.15;44.95
48156;BME280;35568;48.104;11.782;2022-12-22T10:04:31;94911.54;;;10.17;44.23
48156;BME280;35568;48.104;11.782;2022-12-22T10:07:11;94899.97;;;10.04;44.17
48156;BME280;35568;48.104;11.782;2022-12-22T10:09:42;94896.22;;;10.42;44.40
48156;BME280;35568;48.104;11.782;2022-12-22T10:12:14;94881.85;;;10.28;43.85
48156;BME280;35568;48.104;11.782;2022-12-22T10:14:43;94872.31;;;10.41;44.08
48156;BME280;35568;48.104;11.782;2022-12-22T10:17:17;94868.21;;;10.65;43.31
48156;BME280;35568;48.104;11.782;2022-12-22T10:19:46;94868.13;;;10.91;43.37
48156;BME280;35568;48.104;11.782;2022-12-22T10:22:31;94869.39;;;10.88;42.39
48156;BME280;35568;48.104;11.782;2022-12-22T10:25:00;94871.31;;;11.10;42.41
48156;BME280;35568;48.104;11.782;2022-12-22T10:27:30;94877.90;;;11.53;42.60
48156;BME280;35568;48.104;11.782;2022-12-22T10:30:17;94880.29;;;11.47;42.20
48156;BME280;35568;48.104;11.782;2022-12-22T10:33:00;94882.80;;;11.36;42.25
48156;BME280;35568;48.104;11.782;2022-12-22T10:35:43;94880.72;;;11.18;42.35
48156;BME280;35568;48.104;11.782;2022-12-22T10:38:16;94870.06;;;11.13;42.70
48156;BME280;35568;48.104;11.782;2022-12-22T10:40:46;94864.14;;;10.92;42.16
48156;BME280;35568;48.104;11.782;2022-12-22T10:43:18;94870.39;;;10.98;42.67
48156;BME280;35568;48.104;11.782;2022-12-22T10:45:47;94862.97;;;10.99;42.33
48156;BME280;35568;48.104;11.782;2022-12-22T10:48:15;94853.18;;;10.59;42.23
48156;BME280;35568;48.104;11.782;2022-12-22T10:50:44;94859.99;;;10.71;42.80
48156;BME280;35568;48.104;11.782;2022-12-22T10:53:12;94864.58;;;10.88;43.05
48156;BME280;35568;48.104;11.782;2022-12-22T10:55:40;94862.99;;;10.59;42.25
48156;BME280;35568;48.104;11.782;2022-12-22T10:58:15;94874.01;;;9.89;43.01
48156;BME280;35568;48.104;11.782;2022-12-22T11:00:43;94870.44;;;10.48;43.08
48156;BME280;35568;48.104;11.782;2022-12-22T11:03:11;94875.64;;;10.52;42.86
48156;BME280;35568;48.104;11.782;2022-12-22T11:05:38;94875.99;;;10.34;43.24
48156;BME280;35568;48.104;11.782;2022-12-22T11:08:14;94872.36;;;10.57;42.15
48156;BME280;35568;48.104;11.782;2022-12-22T11:10:46;94869.65;;;10.82;42.04
48156;BME280;35568;48.104;11.782;2022-12-22T11:13:27;94870.03;;;10.82;42.41
48156;BME280;35568;48.104;11.782;2022-12-22T11:16:01;94864.54;;;10.98;41.98
48156;BME280;35568;48.104;11.782;2022-12-22T11:18:41;94871.21;;;10.97;41.50
48156;BME280;35568;48.104;11.782;2022-12-22T11:21:15;94871.71;;;10.66;41.98
48156;BME280;35568;48.104;11.782;2022-12-22T11:23:49;94882.93;;;10.63;41.96
48156;BME280;35568;48.104;11.782;2022-12-22T11:26:30;94882.91;;;10.58;42.80
48156;BME280;35568;48.104;11.782;2022-12-22T11:29:15;94872.30;;;9.94;45.25
48156;BME280;35568;48.104;11.782;2022-12-22T11:31:59;94874.03;;;9.88;46.58
48156;BME280;35568;48.104;11.782;2022-12-22T11:34:42;94863.50;;;9.52;47.41
48156;BME280;35568;48.104;11.782;2022-12-22T11:37:25;94860.05;;;9.25;48.04
48156;BME280;35568;48.104;11.782;2022-12-22T11:39:59;94858.81;;;9.36;48.25
48156;BME280;35568;48.104;11.782;2022-12-22T11:42:46;94864.62;;;9.42;47.91
48156;BME280;35568;48.104;11.782;2022-12-22T11:45:35;94864.70;;;9.73;48.49
48156;BME280;35568;48.104;11.782;2022-12-22T11:48:08;94872.81;;;9.35;48.28
48156;BME280;35568;48.104;11.782;2022-12-22T11:50:43;94877.49;;;9.69;48.91
48156;BME280;35568;48.104;11.782;2022-12-22T11:55:36;94853.94;;;9.62;49.30
48156;BME280;35568;48.104;11.782;2022-12-22T11:58:21;94854.26;;;8.99;48.73
48156;BME280;35568;48.104;11.782;2022-12-22T12:01:06;94854.58;;;8.79;48.30
48156;BME280;35568;48.104;11.782;2022-12-22T12:04:26;94834.32;;;8.85;48.57
48156;BME280;35568;48.104;11.782;2022-12-22T12:07:07;94820.27;;;8.86;48.83
48156;BME280;35568;48.104;11.782;2022-12-22T12:09:46;94815.80;;;9.03;48.70
48156;BME280;35568;48.104;11.782;2022-12-22T12:12:21;94811.64;;;9.12;47.82
48156;BME280;35568;48.104;11.782;2022-12-22T12:15:00;94808.43;;;8.67;46.92
48156;BME280;35568;48.104;11.782;2022-12-22T12:17:40;94811.82;;;9.41;46.68
48156;BME280;35568;48.104;11.782;2022-12-22T12:20:33;94812.78;;;9.53;46.71
48156;BME280;35568;48.104;11.782;2022-12-22T12:23:17;94811.30;;;9.36;45.96
48156;BME280;35568;48.104;11.782;2022-12-22T12:25:51;94810.94;;;9.44;45.71
48156;BME280;35568;48.104;11.782;2022-12-22T12:28:30;94818.03;;;9.14;45.93
48156;BME280;35568;48.104;11.782;2022-12-22T12:31:02;94823.56;;;9.42;46.28
48156;BME280;35568;48.104;11.782;2022-12-22T12:33:35;94815.67;;;9.19;46.91
48156;BME280;35568;48.104;11.782;2022-12-22T12:36:12;94818.64;;;9.16;47.20
48156;BME280;35568;48.104;11.782;2022-12-22T12:38:46;94808.57;;;9.60;46.32
48156;BME280;35568;48.104;11.782;2022-12-22T12:41:23;94814.09;;;8.99;46.44
48156;BME280;35568;48.104;11.782;2022-12-22T12:43:54;94805.32;;;9.29;45.67
48156;BME280;35568;48.104;11.782;2022-12-22T12:47:28;94812.82;;;9.61;45.60
48156;BME280;35568;48.104;11.782;2022-12-22T12:50:02;94826.62;;;9.10;45.76
48156;BME280;35568;48.104;11.782;2022-12-22T12:53:06;94818.78;;;9.79;45.31
48156;BME280;35568;48.104;11.782;2022-12-22T12:55:51;94820.35;;;9.38;46.55
48156;BME280;35568;48.104;11.782;2022-12-22T12:58:52;94819.18;;;9.92;46.00
48156;BME280;35568;48.104;11.782;2022-12-22T13:03:39;94808.01;;;9.94;47.24
48156;BME280;35568;48.104;11.782;2022-12-22T13:06:08;94807.65;;;9.70;46.11
48156;BME280;35568;48.104;11.782;2022-12-22T13:09:10;94811.70;;;10.02;46.11
48156;BME280;35568;48.104;11.782;2022-12-22T13:11:41;94807.77;;;10.01;45.30
48156;BME280;35568;48.104;11.782;2022-12-22T13:14:08;94814.42;;;10.15;45.14
48156;BME280;35568;48.104;11.782;2022-12-22T13:16:37;94811.54;;;9.94;44.59
48156;BME280;35568;48.104;11.782;2022-12-22T13:19:14;94821.06;;;10.04;44.68
48156;BME280;35568;48.104;11.782;2022-12-22T13:21:44;94824.26;;;9.69;44.59
48156;BME280;35568;48.104;11.782;2022-12-22T13:24:18;94815.20;;;10.03;43.65
48156;BME280;35568;48.104;11.782;2022-12-22T13:26:47;94813.23;;;10.17;43.57
48156;BME280;35568;48.104;11.782;2022-12-22T13:29:22;94827.64;;;9.93;43.49
48156;BME280;35568;48.104;11.782;2022-12-22T13:31:54;94821.97;;;10.14;43.75
48156;BME280;35568;48.104;11.782;2022-12-22T13:34:41;94838.72;;;10.23;43.92
48156;BME280;35568;48.104;11.782;2022-12-22T13:37:16;94825.73;;;10.12;43.90
48156;BME280;35568;48.104;11.782;2022-12-22T13:40:06;94824.59;;;10.18;43.22